sensor_id;sensor_type;location;lat;lon;timestamp;P1;durP1;ratioP1;P2;durP2;ratioP2
21266;SDS011;10791;53.108;18.326;2022-09-28T00:02:11;28.73;;;18.47;;
21266;SDS011;10791;53.108;18.326;2022-09-28T00:07:14;31.43;;;19.17;;
21266;SDS011;10791;53.108;18.326;2022-09-28T00:12:17;27.10;;;17.97;;
21266;SDS011;10791;53.108;18.326;2022-09-28T00:17:20;24.63;;;16.83;;
21266;SDS011;10791;53.108;18.326;2022-09-28T00:22:25;27.90;;;17.20;;
21266;SDS011;10791;53.108;18.326;2022-09-28T00:27:29;25.80;;;16.60;;
21266;SDS011;10791;53.108;18.326;2022-09-28T00:32:33;23.53;;;15.80;;
21266;SDS011;10791;53.108;18.326;2022-09-28T00:37:36;26.17;;;15.27;;
21266;SDS011;10791;53.108;18.326;2022-09-28T00:42:40;21.57;;;14.67;;
21266;SDS011;10791;53.108;18.326;2022-09-28T00:47:48;21.60;;;13.80;;
21266;SDS011;10791;53.108;18.326;2022-09-28T00:53:04;22.53;;;14.70;;
21266;SDS011;10791;53.108;18.326;2022-09-28T00:58:16;21.43;;;13.10;;
21266;SDS011;10791;53.108;18.326;2022-09-28T01:03:24;18.17;;;13.20;;
21266;SDS011;10791;53.108;18.326;2022-09-28T01:08:29;19.23;;;12.83;;
21266;SDS011;10791;53.108;18.326;2022-09-28T01:13:34;22.47;;;13.07;;
21266;SDS011;10791;53.108;18.326;2022-09-28T01:35:13;29.30;;;15.53;;
21266;SDS011;10791;53.108;18.326;2022-09-28T01:40:24;21.73;;;14.53;;
21266;SDS011;10791;53.108;18.326;2022-09-28T01:45:31;22.13;;;13.60;;
21266;SDS011;10791;53.108;18.326;2022-09-28T01:50:38;19.73;;;13.60;;
21266;SDS011;10791;53.108;18.326;2022-09-28T01:55:44;21.93;;;13.27;;
21266;SDS011;10791;53.108;18.326;2022-09-28T02:00:52;21.17;;;13.53;;
21266;SDS011;10791;53.108;18.326;2022-09-28T02:06:04;20.33;;;13.73;;
21266;SDS011;10791;53.108;18.326;2022-09-28T02:11:14;21.40;;;13.87;;
21266;SDS011;10791;53.108;18.326;2022-09-28T02:21:39;22.40;;;15.37;;
21266;SDS011;10791;53.108;18.326;2022-09-28T02:26:47;22.43;;;14.63;;
21266;SDS011;10791;53.108;18.326;2022-09-28T02:31:52;25.07;;;15.53;;
21266;SDS011;10791;53.108;18.326;2022-09-28T02:36:56;23.20;;;16.53;;
21266;SDS011;10791;53.108;18.326;2022-09-28T02:42:08;21.57;;;14.60;;
21266;SDS011;10791;53.108;18.326;2022-09-28T02:47:23;22.90;;;14.17;;
21266;SDS011;10791;53.108;18.326;2022-09-28T02:58:00;18.87;;;14.00;;
21266;SDS011;10791;53.108;18.326;2022-09-28T03:03:26;21.23;;;14.30;;
21266;SDS011;10791;53.108;18.326;2022-09-28T03:08:38;19.30;;;12.90;;
21266;SDS011;10791;53.108;18.326;2022-09-28T03:13:48;21.63;;;13.73;;
21266;SDS011;10791;53.108;18.326;2022-09-28T03:18:52;23.53;;;14.93;;
21266;SDS011;10791;53.108;18.326;2022-09-28T03:23:55;21.10;;;13.93;;
21266;SDS011;10791;53.108;18.326;2022-09-28T03:28:58;22.43;;;13.40;;
21266;SDS011;10791;53.108;18.326;2022-09-28T03:34:01;22.37;;;12.87;;
21266;SDS011;10791;53.108;18.326;2022-09-28T03:39:05;24.80;;;12.80;;
21266;SDS011;10791;53.108;18.326;2022-09-28T03:44:08;20.20;;;12.33;;
21266;SDS011;10791;53.108;18.326;2022-09-28T03:49:11;18.17;;;12.63;;
21266;SDS011;10791;53.108;18.326;2022-09-28T03:54:15;19.77;;;12.63;;
21266;SDS011;10791;53.108;18.326;2022-09-28T03:59:18;16.37;;;11.47;;
21266;SDS011;10791;53.108;18.326;2022-09-28T04:09:50;20.70;;;11.53;;
21266;SDS011;10791;53.108;18.326;2022-09-28T04:14:53;16.73;;;11.57;;
21266;SDS011;10791;53.108;18.326;2022-09-28T04:19:56;18.57;;;11.57;;
21266;SDS011;10791;53.108;18.326;2022-09-28T04:25:03;16.67;;;11.87;;
21266;SDS011;10791;53.108;18.326;2022-09-28T04:30:07;16.70;;;10.93;;
21266;SDS011;10791;53.108;18.326;2022-09-28T04:35:11;18.90;;;11.47;;
21266;SDS011;10791;53.108;18.326;2022-09-28T04:40:14;15.67;;;10.70;;
21266;SDS011;10791;53.108;18.326;2022-09-28T04:45:18;19.40;;;10.63;;
21266;SDS011;10791;53.108;18.326;2022-09-28T04:50:22;18.33;;;10.30;;
21266;SDS011;10791;53.108;18.326;2022-09-28T04:55:25;18.07;;;10.50;;
21266;SDS011;10791;53.108;18.326;2022-09-28T05:00:34;15.03;;;10.20;;
21266;SDS011;10791;53.108;18.326;2022-09-28T05:05:42;15.83;;;10.30;;
21266;SDS011;10791;53.108;18.326;2022-09-28T05:10:55;15.40;;;10.03;;
21266;SDS011;10791;53.108;18.326;2022-09-28T05:16:02;16.30;;;10.10;;
21266;SDS011;10791;53.108;18.326;2022-09-28T05:21:10;15.67;;;9.73;;
21266;SDS011;10791;53.108;18.326;2022-09-28T05:26:14;17.27;;;10.60;;
21266;SDS011;10791;53.108;18.326;2022-09-28T05:31:18;14.70;;;9.60;;
21266;SDS011;10791;53.108;18.326;2022-09-28T05:36:21;16.77;;;9.47;;
21266;SDS011;10791;53.108;18.326;2022-09-28T05:41:28;17.00;;;10.20;;
21266;SDS011;10791;53.108;18.326;2022-09-28T05:46:31;16.63;;;11.23;;
21266;SDS011;10791;53.108;18.326;2022-09-28T05:51:34;18.50;;;11.33;;
21266;SDS011;10791;53.108;18.326;2022-09-28T05:56:37;15.90;;;10.43;;
21266;SDS011;10791;53.108;18.326;2022-09-28T06:01:40;14.37;;;9.83;;
21266;SDS011;10791;53.108;18.326;2022-09-28T06:06:43;14.30;;;9.50;;
21266;SDS011;10791;53.108;18.326;2022-09-28T06:11:47;15.17;;;9.73;;
21266;SDS011;10791;53.108;18.326;2022-09-28T06:16:50;13.80;;;8.23;;
21266;SDS011;10791;53.108;18.326;2022-09-28T06:21:53;13.03;;;9.20;;
21266;SDS011;10791;53.108;18.326;2022-09-28T06:27:00;14.30;;;10.43;;
21266;SDS011;10791;53.108;18.326;2022-09-28T06:32:03;16.10;;;11.80;;
21266;SDS011;10791;53.108;18.326;2022-09-28T06:37:06;16.77;;;10.70;;
21266;SDS011;10791;53.108;18.326;2022-09-28T06:42:09;15.47;;;10.23;;
21266;SDS011;10791;53.108;18.326;2022-09-28T06:47:12;17.97;;;11.23;;
21266;SDS011;10791;53.108;18.326;2022-09-28T06:52:16;17.87;;;12.10;;
21266;SDS011;10791;53.108;18.326;2022-09-28T06:57:19;21.47;;;12.87;;
21266;SDS011;10791;53.108;18.326;2022-09-28T07:02:22;14.53;;;10.07;;
21266;SDS011;10791;53.108;18.326;2022-09-28T07:07:26;14.50;;;9.60;;
21266;SDS011;10791;53.108;18.326;2022-09-28T07:12:30;16.13;;;10.47;;
21266;SDS011;10791;53.108;18.326;2022-09-28T07:17:34;14.27;;;9.33;;
21266;SDS011;10791;53.108;18.326;2022-09-28T07:22:52;15.10;;;8.50;;
21266;SDS011;10791;53.108;18.326;2022-09-28T07:27:58;17.23;;;10.10;;
21266;SDS011;10791;53.108;18.326;2022-09-28T07:33:04;19.23;;;10.20;;
21266;SDS011;10791;53.108;18.326;2022-09-28T07:38:09;14.33;;;10.30;;
21266;SDS011;10791;53.108;18.326;2022-09-28T07:43:12;15.37;;;9.23;;
21266;SDS011;10791;53.108;18.326;2022-09-28T07:48:16;16.07;;;9.83;;
21266;SDS011;10791;53.108;18.326;2022-09-28T07:53:21;15.07;;;9.30;;
21266;SDS011;10791;53.108;18.326;2022-09-28T07:58:26;13.97;;;9.40;;
21266;SDS011;10791;53.108;18.326;2022-09-28T08:03:29;14.73;;;9.83;;
21266;SDS011;10791;53.108;18.326;2022-09-28T08:08:33;12.67;;;8.93;;
21266;SDS011;10791;53.108;18.326;2022-09-28T08:13:37;13.63;;;9.17;;
21266;SDS011;10791;53.108;18.326;2022-09-28T08:18:40;12.97;;;9.57;;
21266;SDS011;10791;53.108;18.326;2022-09-28T08:23:44;13.10;;;9.07;;
21266;SDS011;10791;53.108;18.326;2022-09-28T08:28:47;13.70;;;9.60;;
21266;SDS011;10791;53.108;18.326;2022-09-28T08:33:50;14.00;;;10.30;;
21266;SDS011;10791;53.108;18.326;2022-09-28T08:38:55;11.27;;;8.20;;
21266;SDS011;10791;53.108;18.326;2022-09-28T08:49:09;10.03;;;7.67;;
21266;SDS011;10791;53.108;18.326;2022-09-28T08:54:29;13.70;;;8.27;;
21266;SDS011;10791;53.108;18.326;2022-09-28T09:04:51;10.93;;;8.00;;
21266;SDS011;10791;53.108;18.326;2022-09-28T09:10:12;14.67;;;9.33;;
21266;SDS011;10791;53.108;18.326;2022-09-28T09:15:39;11.83;;;8.23;;
21266;SDS011;10791;53.108;18.326;2022-09-28T09:25:58;10.00;;;7.70;;
21266;SDS011;10791;53.108;18.326;2022-09-28T09:36:40;8.30;;;6.50;;
21266;SDS011;10791;53.108;18.326;2022-09-28T09:47:15;8.23;;;5.67;;
21266;SDS011;10791;53.108;18.326;2022-09-28T09:52:29;8.00;;;5.93;;
21266;SDS011;10791;53.108;18.326;2022-09-28T09:57:49;7.27;;;4.90;;
21266;SDS011;10791;53.108;18.326;2022-09-28T10:02:56;7.80;;;5.83;;
21266;SDS011;10791;53.108;18.326;2022-09-28T10:08:03;13.30;;;5.77;;
21266;SDS011;10791;53.108;18.326;2022-09-28T10:13:16;7.73;;;5.63;;
21266;SDS011;10791;53.108;18.326;2022-09-28T10:18:19;9.27;;;6.40;;
21266;SDS011;10791;53.108;18.326;2022-09-28T10:23:27;9.70;;;5.83;;
21266;SDS011;10791;53.108;18.326;2022-09-28T10:28:39;7.40;;;5.77;;
21266;SDS011;10791;53.108;18.326;2022-09-28T10:33:51;10.80;;;7.53;;
21266;SDS011;10791;53.108;18.326;2022-09-28T10:38:56;12.63;;;8.57;;
21266;SDS011;10791;53.108;18.326;2022-09-28T10:44:01;11.63;;;8.30;;
21266;SDS011;10791;53.108;18.326;2022-09-28T10:49:15;14.23;;;9.03;;
21266;SDS011;10791;53.108;18.326;2022-09-28T10:54:24;12.37;;;8.93;;
21266;SDS011;10791;53.108;18.326;2022-09-28T10:59:39;15.60;;;10.90;;
21266;SDS011;10791;53.108;18.326;2022-09-28T11:04:48;14.77;;;9.97;;
21266;SDS011;10791;53.108;18.326;2022-09-28T11:09:59;12.27;;;8.60;;
21266;SDS011;10791;53.108;18.326;2022-09-28T11:15:04;15.40;;;10.37;;
21266;SDS011;10791;53.108;18.326;2022-09-28T11:25:29;12.70;;;6.67;;
21266;SDS011;10791;53.108;18.326;2022-09-28T11:30:35;12.87;;;8.47;;
21266;SDS011;10791;53.108;18.326;2022-09-28T11:41:13;13.27;;;7.90;;
21266;SDS011;10791;53.108;18.326;2022-09-28T11:51:56;12.97;;;8.87;;
21266;SDS011;10791;53.108;18.326;2022-09-28T11:57:03;12.57;;;8.90;;
21266;SDS011;10791;53.108;18.326;2022-09-28T12:02:15;8.90;;;6.87;;
21266;SDS011;10791;53.108;18.326;2022-09-28T12:07:33;7.53;;;5.90;;
21266;SDS011;10791;53.108;18.326;2022-09-28T12:12:46;6.53;;;5.00;;
21266;SDS011;10791;53.108;18.326;2022-09-28T12:17:56;6.80;;;5.27;;
21266;SDS011;10791;53.108;18.326;2022-09-28T12:28:32;10.47;;;6.60;;
21266;SDS011;10791;53.108;18.326;2022-09-28T12:33:50;9.70;;;6.33;;
21266;SDS011;10791;53.108;18.326;2022-09-28T12:50:25;13.07;;;8.43;;
21266;SDS011;10791;53.108;18.326;2022-09-28T13:17:31;12.57;;;10.13;;
21266;SDS011;10791;53.108;18.326;2022-09-28T13:28:13;13.20;;;11.17;;
21266;SDS011;10791;53.108;18.326;2022-09-28T13:33:21;14.57;;;11.50;;
21266;SDS011;10791;53.108;18.326;2022-09-28T13:38:47;20.63;;;13.33;;
21266;SDS011;10791;53.108;18.326;2022-09-28T13:54:24;13.20;;;11.13;;
21266;SDS011;10791;53.108;18.326;2022-09-28T13:59:51;14.23;;;10.10;;
21266;SDS011;10791;53.108;18.326;2022-09-28T14:05:30;15.60;;;10.57;;
21266;SDS011;10791;53.108;18.326;2022-09-28T14:10:48;15.10;;;10.50;;
21266;SDS011;10791;53.108;18.326;2022-09-28T14:16:18;15.23;;;10.73;;
21266;SDS011;10791;53.108;18.326;2022-09-28T14:31:56;11.10;;;8.63;;
21266;SDS011;10791;53.108;18.326;2022-09-28T14:37:19;11.17;;;8.70;;
21266;SDS011;10791;53.108;18.326;2022-09-28T14:43:18;10.60;;;9.23;;
21266;SDS011;10791;53.108;18.326;2022-09-28T14:49:41;13.43;;;9.10;;
21266;SDS011;10791;53.108;18.326;2022-09-28T14:54:12;12.47;;;8.20;;
21266;SDS011;10791;53.108;18.326;2022-09-28T14:59:21;10.30;;;7.93;;
21266;SDS011;10791;53.108;18.326;2022-09-28T15:04:27;13.70;;;9.27;;
21266;SDS011;10791;53.108;18.326;2022-09-28T15:09:35;11.83;;;8.60;;
21266;SDS011;10791;53.108;18.326;2022-09-28T15:25:31;10.43;;;6.50;;
21266;SDS011;10791;53.108;18.326;2022-09-28T15:30:36;8.97;;;5.63;;
21266;SDS011;10791;53.108;18.326;2022-09-28T15:35:39;15.40;;;9.77;;
21266;SDS011;10791;53.108;18.326;2022-09-28T15:40:43;8.83;;;6.67;;
21266;SDS011;10791;53.108;18.326;2022-09-28T15:45:54;12.37;;;7.87;;
21266;SDS011;10791;53.108;18.326;2022-09-28T15:51:07;21.73;;;9.40;;
21266;SDS011;10791;53.108;18.326;2022-09-28T15:56:14;15.97;;;8.87;;
21266;SDS011;10791;53.108;18.326;2022-09-28T16:01:24;10.67;;;7.60;;
21266;SDS011;10791;53.108;18.326;2022-09-28T16:06:32;13.77;;;9.30;;
21266;SDS011;10791;53.108;18.326;2022-09-28T16:11:36;13.17;;;7.00;;
21266;SDS011;10791;53.108;18.326;2022-09-28T16:16:43;7.50;;;5.47;;
21266;SDS011;10791;53.108;18.326;2022-09-28T16:21:53;8.10;;;5.47;;
21266;SDS011;10791;53.108;18.326;2022-09-28T16:26:59;6.93;;;5.17;;
21266;SDS011;10791;53.108;18.326;2022-09-28T16:37:37;6.30;;;3.90;;
21266;SDS011;10791;53.108;18.326;2022-09-28T16:42:49;6.53;;;3.77;;
21266;SDS011;10791;53.108;18.326;2022-09-28T16:47:56;7.83;;;4.00;;
21266;SDS011;10791;53.108;18.326;2022-09-28T16:53:13;5.60;;;2.10;;
21266;SDS011;10791;53.108;18.326;2022-09-28T16:58:37;2.27;;;1.77;;
21266;SDS011;10791;53.108;18.326;2022-09-28T17:03:42;3.67;;;1.97;;
21266;SDS011;10791;53.108;18.326;2022-09-28T17:08:52;3.23;;;2.43;;
21266;SDS011;10791;53.108;18.326;2022-09-28T17:13:59;3.10;;;2.57;;
21266;SDS011;10791;53.108;18.326;2022-09-28T17:19:23;4.73;;;3.17;;
21266;SDS011;10791;53.108;18.326;2022-09-28T17:24:31;6.97;;;3.60;;
21266;SDS011;10791;53.108;18.326;2022-09-28T17:29:35;7.97;;;6.00;;
21266;SDS011;10791;53.108;18.326;2022-09-28T17:34:38;16.30;;;11.97;;
21266;SDS011;10791;53.108;18.326;2022-09-28T17:39:42;28.50;;;16.97;;
21266;SDS011;10791;53.108;18.326;2022-09-28T17:44:47;15.10;;;10.70;;
21266;SDS011;10791;53.108;18.326;2022-09-28T17:49:50;18.70;;;10.40;;
21266;SDS011;10791;53.108;18.326;2022-09-28T17:54:55;17.47;;;9.07;;
21266;SDS011;10791;53.108;18.326;2022-09-28T17:59:58;18.47;;;10.97;;
21266;SDS011;10791;53.108;18.326;2022-09-28T18:05:02;18.97;;;10.70;;
21266;SDS011;10791;53.108;18.326;2022-09-28T18:10:11;19.80;;;10.47;;
21266;SDS011;10791;53.108;18.326;2022-09-28T18:15:17;30.90;;;19.47;;
21266;SDS011;10791;53.108;18.326;2022-09-28T18:20:21;20.40;;;13.60;;
21266;SDS011;10791;53.108;18.326;2022-09-28T18:25:24;19.37;;;13.37;;
21266;SDS011;10791;53.108;18.326;2022-09-28T18:30:28;19.90;;;12.50;;
21266;SDS011;10791;53.108;18.326;2022-09-28T18:35:32;17.13;;;11.83;;
21266;SDS011;10791;53.108;18.326;2022-09-28T18:40:41;16.63;;;10.10;;
21266;SDS011;10791;53.108;18.326;2022-09-28T18:45:45;15.47;;;9.13;;
21266;SDS011;10791;53.108;18.326;2022-09-28T18:50:49;12.90;;;8.30;;
21266;SDS011;10791;53.108;18.326;2022-09-28T18:55:54;15.20;;;8.80;;
21266;SDS011;10791;53.108;18.326;2022-09-28T19:00:59;17.33;;;9.67;;
21266;SDS011;10791;53.108;18.326;2022-09-28T19:06:35;14.50;;;9.37;;
21266;SDS011;10791;53.108;18.326;2022-09-28T19:11:42;14.20;;;8.83;;
21266;SDS011;10791;53.108;18.326;2022-09-28T19:16:45;25.90;;;14.80;;
21266;SDS011;10791;53.108;18.326;2022-09-28T19:21:49;43.93;;;20.53;;
21266;SDS011;10791;53.108;18.326;2022-09-28T19:26:54;33.73;;;21.87;;
21266;SDS011;10791;53.108;18.326;2022-09-28T19:31:58;68.00;;;36.37;;
21266;SDS011;10791;53.108;18.326;2022-09-28T19:37:03;42.57;;;27.13;;
21266;SDS011;10791;53.108;18.326;2022-09-28T19:42:06;29.10;;;19.73;;
21266;SDS011;10791;53.108;18.326;2022-09-28T19:47:09;25.17;;;16.33;;
21266;SDS011;10791;53.108;18.326;2022-09-28T19:52:14;26.63;;;15.60;;
21266;SDS011;10791;53.108;18.326;2022-09-28T19:57:19;30.33;;;17.53;;
21266;SDS011;10791;53.108;18.326;2022-09-28T20:02:24;39.57;;;20.33;;
21266;SDS011;10791;53.108;18.326;2022-09-28T20:07:28;34.57;;;19.17;;
21266;SDS011;10791;53.108;18.326;2022-09-28T20:12:35;36.10;;;18.23;;
21266;SDS011;10791;53.108;18.326;2022-09-28T20:17:39;30.23;;;15.80;;
21266;SDS011;10791;53.108;18.326;2022-09-28T20:22:42;31.33;;;17.00;;
21266;SDS011;10791;53.108;18.326;2022-09-28T20:27:46;34.93;;;16.80;;
21266;SDS011;10791;53.108;18.326;2022-09-28T20:32:51;30.33;;;16.50;;
21266;SDS011;10791;53.108;18.326;2022-09-28T20:37:56;25.43;;;15.53;;
21266;SDS011;10791;53.108;18.326;2022-09-28T20:43:00;24.97;;;13.83;;
21266;SDS011;10791;53.108;18.326;2022-09-28T20:48:06;21.23;;;14.07;;
21266;SDS011;10791;53.108;18.326;2022-09-28T20:53:10;21.70;;;13.80;;
21266;SDS011;10791;53.108;18.326;2022-09-28T20:58:13;32.03;;;17.00;;
21266;SDS011;10791;53.108;18.326;2022-09-28T21:03:16;26.70;;;14.13;;
21266;SDS011;10791;53.108;18.326;2022-09-28T21:08:21;23.60;;;13.67;;
21266;SDS011;10791;53.108;18.326;2022-09-28T21:13:26;32.13;;;15.73;;
21266;SDS011;10791;53.108;18.326;2022-09-28T21:18:29;21.67;;;13.43;;
21266;SDS011;10791;53.108;18.326;2022-09-28T21:23:33;17.30;;;11.33;;
21266;SDS011;10791;53.108;18.326;2022-09-28T21:28:37;15.40;;;9.73;;
21266;SDS011;10791;53.108;18.326;2022-09-28T21:33:40;16.87;;;10.57;;
21266;SDS011;10791;53.108;18.326;2022-09-28T21:38:44;13.70;;;9.83;;
21266;SDS011;10791;53.108;18.326;2022-09-28T21:43:47;16.67;;;9.67;;
21266;SDS011;10791;53.108;18.326;2022-09-28T21:48:51;15.17;;;9.17;;
21266;SDS011;10791;53.108;18.326;2022-09-28T21:53:58;14.70;;;9.17;;
21266;SDS011;10791;53.108;18.326;2022-09-28T21:59:01;37.07;;;14.57;;
21266;SDS011;10791;53.108;18.326;2022-09-28T22:04:04;15.40;;;10.13;;
21266;SDS011;10791;53.108;18.326;2022-09-28T22:09:08;23.77;;;11.57;;
21266;SDS011;10791;53.108;18.326;2022-09-28T22:14:12;20.93;;;12.10;;
21266;SDS011;10791;53.108;18.326;2022-09-28T22:19:15;16.30;;;9.90;;
21266;SDS011;10791;53.108;18.326;2022-09-28T22:24:18;9.80;;;7.47;;
21266;SDS011;10791;53.108;18.326;2022-09-28T22:29:21;12.53;;;7.90;;
21266;SDS011;10791;53.108;18.326;2022-09-28T22:34:29;10.90;;;7.97;;
21266;SDS011;10791;53.108;18.326;2022-09-28T22:39:33;9.90;;;6.90;;
21266;SDS011;10791;53.108;18.326;2022-09-28T22:44:38;11.70;;;7.87;;
21266;SDS011;10791;53.108;18.326;2022-09-28T22:49:42;10.73;;;7.13;;
21266;SDS011;10791;53.108;18.326;2022-09-28T22:54:45;12.80;;;8.00;;
21266;SDS011;10791;53.108;18.326;2022-09-28T22:59:49;10.97;;;7.77;;
21266;SDS011;10791;53.108;18.326;2022-09-28T23:04:52;10.60;;;7.70;;
21266;SDS011;10791;53.108;18.326;2022-09-28T23:09:55;11.70;;;8.40;;
21266;SDS011;10791;53.108;18.326;2022-09-28T23:15:01;13.77;;;9.43;;
21266;SDS011;10791;53.108;18.326;2022-09-28T23:20:04;14.60;;;10.17;;
21266;SDS011;10791;53.108;18.326;2022-09-28T23:25:08;16.87;;;9.97;;
21266;SDS011;10791;53.108;18.326;2022-09-28T23:30:12;13.80;;;9.37;;
21266;SDS011;10791;53.108;18.326;2022-09-28T23:35:16;17.17;;;9.47;;
21266;SDS011;10791;53.108;18.326;2022-09-28T23:40:20;15.40;;;9.63;;
21266;SDS011;10791;53.108;18.326;2022-09-28T23:45:23;20.47;;;13.73;;
21266;SDS011;10791;53.108;18.326;2022-09-28T23:50:26;23.23;;;15.80;;
21266;SDS011;10791;53.108;18.326;2022-09-28T23:55:30;15.90;;;11.57;;
